Time;durP1;ratioP1;P1;durP2;ratioP2;P2;SDS_P1;SDS_P2;PMS_P1;PMS_P2;Temp;Humidity;BMP_temperature;BMP_pressure;BME280_temperature;BME280_humidity;BME280_pressure;Samples;Min_cycle;Max_cycle;Signal;HPM_P1;HPM_P2
2021/11/09 00:00:42;;;;;;;7.65;5.25;;;;;;;11.26;61.90;101179.59;5058164;28;20076;-76
2021/11/09 00:03:09;;;;;;;10.82;6.15;;;;;;;11.08;61.92;101173.31;5024612;28;20033;-76
2021/11/09 00:05:44;;;;;;;10.27;6.00;;;;;;;10.80;63.30;101192.28;5026123;28;20037;-77
2021/11/09 00:08:14;;;;;;;8.93;4.97;;;;;;;10.96;63.39;101208.22;5029249;28;20030;-73
2021/11/09 00:10:39;;;;;;;7.68;4.85;;;;;;;10.81;63.44;101200.13;5030031;28;20461;-77
2021/11/09 00:13:05;;;;;;;6.30;4.10;;;;;;;10.73;63.58;101157.19;5031389;28;20044;-76
2021/11/09 00:15:32;;;;;;;10.38;4.40;;;;;;;10.84;63.80;101187.06;5030075;28;20030;-76
2021/11/09 00:18:01;;;;;;;7.93;4.68;;;;;;;10.94;63.87;101178.41;5030512;28;20066;-75
2021/11/09 00:20:30;;;;;;;9.70;4.60;;;;;;;10.64;64.39;101157.06;5062001;28;20052;-75
2021/11/09 00:22:57;;;;;;;7.10;4.28;;;;;;;11.21;63.60;101155.91;5026663;28;20132;-77
2021/11/09 00:25:24;;;;;;;8.90;5.45;;;;;;;11.40;63.48;101159.59;5028114;28;20041;-75
2021/11/09 00:27:50;;;;;;;6.53;3.75;;;;;;;11.62;63.57;101169.41;5030807;28;20041;-78
2021/11/09 00:30:18;;;;;;;7.78;5.32;;;;;;;11.26;63.71;101169.09;5039148;28;20103;-75
2021/11/09 00:32:44;;;;;;;12.98;4.07;;;;;;;10.77;65.26;101153.75;5035498;28;20611;-76
2021/11/09 00:35:12;;;;;;;6.93;4.53;;;;;;;10.71;65.38;101169.41;5033408;28;20026;-76
2021/11/09 00:37:39;;;;;;;4.97;3.80;;;;;;;11.32;63.69;101198.06;5016619;28;20071;-76
2021/11/09 00:40:06;;;;;;;9.52;4.10;;;;;;;11.25;64.22;101207.63;5026994;28;20550;-75
2021/11/09 00:42:31;;;;;;;16.48;4.50;;;;;;;10.69;65.48;101207.88;5030406;28;20432;-74
2021/11/09 00:44:57;;;;;;;5.95;3.47;;;;;;;10.41;66.54;101202.25;5026552;28;20132;-77
2021/11/09 00:47:22;;;;;;;7.25;4.40;;;;;;;10.47;66.52;101181.38;5028415;28;20091;-78
2021/11/09 00:49:49;;;;;;;7.60;4.93;;;;;;;11.15;64.88;101196.16;5019437;28;20029;-76
2021/11/09 00:52:14;;;;;;;8.73;4.55;;;;;;;10.84;65.40;101166.06;5014850;28;20040;-75
2021/11/09 00:54:41;;;;;;;9.95;3.55;;;;;;;11.04;65.67;101174.13;5023632;28;20080;-75
2021/11/09 00:57:07;;;;;;;8.90;4.93;;;;;;;11.11;65.43;101194.34;5017371;28;20045;-75
2021/11/09 00:59:32;;;;;;;9.20;4.75;;;;;;;11.62;64.14;101177.31;5017820;28;20076;-76
2021/11/09 01:01:58;;;;;;;7.40;4.38;;;;;;;10.95;65.56;101187.16;5030320;28;20033;-76
2021/11/09 01:04:25;;;;;;;7.05;3.97;;;;;;;10.89;66.73;101197.63;5029152;28;20144;-75
2021/11/09 01:06:51;;;;;;;7.63;4.47;;;;;;;10.38;67.99;101217.09;5013703;28;20116;-75
2021/11/09 01:09:17;;;;;;;8.25;4.63;;;;;;;10.50;68.14;101197.16;5030143;28;20132;-75
2021/11/09 01:11:42;;;;;;;6.82;4.00;;;;;;;10.98;66.72;101231.88;5027633;28;20041;-75
2021/11/09 01:14:08;;;;;;;10.38;3.97;;;;;;;10.52;67.45;101233.91;5029901;28;20033;-75
2021/11/09 01:16:35;;;;;;;8.73;4.63;;;;;;;10.88;66.29;101220.34;5029470;28;20044;-76
2021/11/09 01:19:04;;;;;;;6.45;4.43;;;;;;;11.08;66.54;101252.09;5028301;28;20393;-76
2021/11/09 01:21:31;;;;;;;7.88;4.05;;;;;;;11.02;67.09;101232.78;5030230;28;20044;-75
2021/11/09 01:23:57;;;;;;;9.70;3.88;;;;;;;10.41;68.10;101240.75;5016579;28;20456;-75
2021/11/09 01:26:24;;;;;;;8.32;4.18;;;;;;;10.00;70.28;101248.88;5025224;28;20029;-74
2021/11/09 01:28:55;;;;;;;6.82;4.07;;;;;;;10.08;70.62;101231.50;5028890;28;20037;-78
2021/11/09 01:31:21;;;;;;;16.15;4.60;;;;;;;9.77;72.33;101253.72;5027059;28;20049;-76
2021/11/09 01:33:48;;;;;;;8.70;4.30;;;;;;;9.84;72.45;101227.63;5029968;28;20055;-74
2021/11/09 01:36:14;;;;;;;7.07;4.90;;;;;;;10.90;70.48;101262.38;5028755;28;20549;-77
2021/11/09 01:38:40;;;;;;;8.52;4.28;;;;;;;11.54;68.21;101254.31;5027774;28;20033;-76
2021/11/09 01:41:08;;;;;;;7.30;4.03;;;;;;;10.50;70.21;101267.13;5027991;28;20071;-74
2021/11/09 01:43:35;;;;;;;7.95;3.83;;;;;;;11.35;68.69;101264.66;5027663;28;20087;-75
2021/11/09 01:46:04;;;;;;;6.03;3.60;;;;;;;11.91;67.35;101254.69;5028899;28;20134;-77
2021/11/09 01:48:30;;;;;;;7.55;3.58;;;;;;;12.06;66.70;101256.53;5029813;28;20079;-75
2021/11/09 01:51:03;;;;;;;5.97;3.50;;;;;;;10.56;69.97;101241.84;5027788;28;20389;-74
2021/11/09 01:53:28;;;;;;;;;;;;;;;10.07;72.70;101251.59;5029047;28;20439;-75
2021/11/09 01:55:57;;;;;;;8.15;4.05;;;;;;;10.20;71.98;101241.28;5028485;28;19920;-77
2021/11/09 01:58:24;;;;;;;7.80;3.78;;;;;;;9.76;74.38;101258.06;5026891;28;20037;-75
2021/11/09 02:00:56;;;;;;;10.50;5.22;;;;;;;9.57;74.93;101232.41;5017091;28;20033;-78
2021/11/09 02:03:24;;;;;;;6.05;4.10;;;;;;;9.45;74.98;101236.56;5027702;28;20047;-77
2021/11/09 02:05:50;;;;;;;6.03;3.75;;;;;;;10.02;73.70;101257.59;5027817;28;20550;-77
2021/11/09 02:08:17;;;;;;;8.52;4.53;;;;;;;10.40;73.69;101257.38;5022564;28;20084;-73
2021/11/09 02:10:46;;;;;;;5.80;3.38;;;;;;;9.99;74.04;101239.22;5027374;28;20505;-76
2021/11/09 02:13:12;;;;;;;6.85;4.15;;;;;;;9.73;75.52;101255.41;5022178;28;20527;-75
2021/11/09 02:15:39;;;;;;;9.95;4.78;;;;;;;9.62;76.03;101262.19;5015050;28;20029;-75
2021/11/09 02:18:06;;;;;;;12.85;3.85;;;;;;;10.23;74.22;101255.34;5028968;28;20029;-74
2021/11/09 02:20:32;;;;;;;7.20;3.85;;;;;;;9.74;75.40;101225.72;5024388;28;20033;-76
2021/11/09 02:22:58;;;;;;;6.10;3.35;;;;;;;10.52;72.81;101242.66;5021792;28;20048;-75
2021/11/09 02:25:26;;;;;;;8.13;3.95;;;;;;;10.37;73.32;101241.56;5022158;28;20045;-74
2021/11/09 02:27:53;;;;;;;6.97;3.85;;;;;;;9.76;73.75;101221.38;5024905;28;20052;-75
2021/11/09 02:30:23;;;;;;;5.65;3.88;;;;;;;10.03;74.37;101241.91;5025227;28;20042;-79
2021/11/09 02:32:49;;;;;;;8.77;4.10;;;;;;;9.52;75.44;101243.69;5026554;28;20036;-77
2021/11/09 02:35:15;;;;;;;7.88;4.13;;;;;;;10.10;74.34;101219.28;5016224;28;20038;-76
2021/11/09 02:37:41;;;;;;;8.70;4.50;;;;;;;10.55;73.09;101207.69;5018365;28;20036;-75
2021/11/09 02:40:08;;;;;;;7.47;4.18;;;;;;;10.82;72.38;101206.31;5018033;28;20045;-75
2021/11/09 02:42:49;;;;;;;8.18;4.68;;;;;;;11.34;71.28;101215.59;5026445;28;20111;-74
2021/11/09 02:45:21;;;;;;;9.90;4.65;;;;;;;11.27;70.28;101231.28;5014275;28;20052;-76
2021/11/09 02:47:59;;;;;;;7.80;5.00;;;;;;;11.24;70.97;101228.63;5011989;28;20069;-76
2021/11/09 02:50:30;;;;;;;7.00;4.05;;;;;;;9.99;73.47;101213.88;5027777;28;20065;-77
2021/11/09 02:53:00;;;;;;;7.28;3.45;;;;;;;10.32;73.19;101216.16;5027470;28;20063;-77
2021/11/09 02:55:34;;;;;;;6.10;4.07;;;;;;;10.88;72.13;101194.09;5026161;28;20042;-77
2021/11/09 03:00:31;;;;;;;9.13;4.20;;;;;;;9.99;74.18;101197.25;5023962;28;20029;-77
2021/11/09 03:05:30;;;;;;;5.53;3.25;;;;;;;10.00;74.99;101181.56;5021379;28;20486;-76
2021/11/09 03:08:02;;;;;;;8.35;3.67;;;;;;;9.73;76.05;101203.84;5026764;28;20029;-76
2021/11/09 03:10:32;;;;;;;11.57;4.30;;;;;;;9.35;77.19;101189.25;5026479;28;20037;-77
2021/11/09 03:12:58;;;;;;;6.63;3.80;;;;;;;9.11;77.50;101187.03;5026436;28;20021;-78
2021/11/09 03:15:27;;;;;;;6.88;4.38;;;;;;;9.06;78.39;101224.53;5023449;28;20021;-76
2021/11/09 03:18:00;;;;;;;9.43;4.30;;;;;;;9.55;76.90;101192.19;5026622;28;20036;-78
2021/11/09 03:20:39;;;;;;;12.35;5.07;;;;;;;9.76;75.69;101229.22;5022232;28;20168;-78
2021/11/09 03:45:08;;;;;;;8.27;4.60;;;;;;;9.36;76.04;101207.59;5018965;28;20542;-75
2021/11/09 03:47:38;;;;;;;9.98;5.80;;;;;;;9.61;75.61;101223.75;5026474;28;20511;-75
2021/11/09 03:50:06;;;;;;;8.73;5.30;;;;;;;10.28;74.00;101231.81;5024926;28;20107;-75
2021/11/09 03:52:39;;;;;;;8.25;5.32;;;;;;;10.18;74.44;101209.78;5026424;28;20033;-75
2021/11/09 03:55:07;;;;;;;14.02;7.25;;;;;;;9.45;76.54;101205.13;5025560;28;20040;-76
2021/11/09 03:57:37;;;;;;;8.20;4.80;;;;;;;9.09;76.91;101213.22;5025081;28;20049;-75
2021/11/09 04:05:11;;;;;;;9.02;5.18;;;;;;;10.30;74.73;101227.47;5019188;28;20120;-75
2021/11/09 04:07:44;;;;;;;7.57;5.10;;;;;;;10.64;73.09;101207.81;5027149;28;20140;-75
2021/11/09 04:28:47;;;;;;;15.50;6.80;;;;;;;10.85;71.76;101258.84;5092154;28;20093;-78
2021/11/09 05:01:20;;;;;;;10.02;6.30;;;;;;;11.86;68.29;101295.81;5089451;28;20046;-74
2021/11/09 05:11:40;;;;;;;9.32;6.30;;;;;;;11.89;68.50;101302.00;5091895;28;20044;-76
2021/11/09 05:14:12;;;;;;;9.27;6.80;;;;;;;12.00;67.93;101307.38;5092290;28;20477;-74
2021/11/09 05:16:41;;;;;;;11.82;7.53;;;;;;;12.19;67.64;101321.56;5089276;28;20038;-77
2021/11/09 05:19:08;;;;;;;14.52;6.90;;;;;;;12.10;66.96;101313.59;5088067;28;20036;-75
2021/11/09 05:21:35;;;;;;;12.15;7.45;;;;;;;12.12;67.97;101319.75;5085908;28;20044;-76
2021/11/09 05:24:02;;;;;;;8.93;6.40;;;;;;;12.42;67.20;101338.41;5073083;28;20086;-75
2021/11/09 05:26:29;;;;;;;12.50;8.80;;;;;;;12.39;67.27;101338.38;5080470;28;20042;-75
2021/11/09 05:28:54;;;;;;;7.85;6.13;;;;;;;12.11;67.55;101323.25;5083269;28;20064;-75
2021/11/09 05:31:20;;;;;;;10.85;6.45;;;;;;;12.14;67.72;101354.84;5074304;28;20548;-75
2021/11/09 05:33:47;;;;;;;9.68;6.93;;;;;;;12.29;67.25;101338.28;5077628;28;20036;-76
2021/11/09 05:36:12;;;;;;;12.30;7.50;;;;;;;11.75;68.26;101364.97;5083793;28;20056;-76
2021/11/09 05:41:16;;;;;;;10.57;7.28;;;;;;;11.93;68.67;101330.09;5078838;28;20135;-77
2021/11/09 05:43:41;;;;;;;12.90;7.72;;;;;;;11.97;67.76;101329.28;5081730;28;20028;-75
2021/11/09 05:46:08;;;;;;;10.50;6.55;;;;;;;11.84;67.89;101332.59;5084374;28;20025;-78
2021/11/09 05:48:35;;;;;;;8.77;6.45;;;;;;;11.97;68.48;101359.97;5073049;28;20032;-74
2021/11/09 05:51:01;;;;;;;10.68;7.32;;;;;;;11.87;68.10;101363.31;5073076;28;20033;-77
2021/11/09 05:53:26;;;;;;;11.20;6.97;;;;;;;11.70;67.93;101365.78;5073208;28;20039;-75
2021/11/09 05:55:52;;;;;;;9.68;6.03;;;;;;;11.87;68.58;101366.88;5075088;28;20098;-75
2021/11/09 05:58:17;;;;;;;12.25;8.07;;;;;;;11.79;68.64;101366.75;5075681;28;20028;-75
2021/11/09 06:00:43;;;;;;;8.45;6.40;;;;;;;11.43;68.91;101347.97;5082623;28;20040;-72
2021/11/09 06:03:08;;;;;;;8.27;6.55;;;;;;;12.01;68.67;101381.06;5080532;28;20067;-67
2021/11/09 06:05:34;;;;;;;8.88;6.63;;;;;;;11.99;67.72;101371.38;5073987;28;20063;-67
2021/11/09 06:07:59;;;;;;;13.48;6.65;;;;;;;12.15;67.01;101346.97;5072206;28;20396;-76
2021/11/09 06:10:25;;;;;;;9.18;6.05;;;;;;;12.30;67.06;101372.53;5070389;28;20048;-66
2021/11/09 06:12:50;;;;;;;7.60;5.03;;;;;;;12.41;66.85;101402.47;5071414;28;20391;-66
2021/11/09 06:15:16;;;;;;;15.20;7.55;;;;;;;12.17;66.92;101418.88;5076671;28;20032;-66
2021/11/09 06:17:41;;;;;;;10.02;6.63;;;;;;;11.56;68.75;101429.59;5072318;28;20036;-65
2021/11/09 06:20:07;;;;;;;14.00;8.23;;;;;;;10.71;70.93;101405.66;5077466;28;20516;-64
2021/11/09 06:22:35;;;;;;;9.70;7.30;;;;;;;9.63;74.96;101431.66;5081688;28;20042;-66
2021/11/09 06:25:02;;;;;;;12.35;6.93;;;;;;;9.54;76.17;101413.16;5072473;28;20123;-66
2021/11/09 06:27:28;;;;;;;16.20;8.63;;;;;;;10.12;74.84;101424.75;5079490;28;20075;-65
2021/11/09 06:29:53;;;;;;;14.98;7.43;;;;;;;9.42;76.22;101408.53;5073041;28;20064;-66
2021/11/09 06:32:18;;;;;;;11.50;8.45;;;;;;;10.55;74.18;101429.00;5072135;28;20043;-64
2021/11/09 06:34:45;;;;;;;11.75;7.15;;;;;;;10.88;72.66;101433.03;5075292;28;20525;-65
2021/11/09 06:37:10;;;;;;;10.93;7.85;;;;;;;10.66;72.58;101425.69;5072682;28;20032;-65
2021/11/09 06:39:36;;;;;;;12.38;6.82;;;;;;;10.95;71.50;101397.25;5083374;28;20036;-64
2021/11/09 06:42:02;;;;;;;9.70;7.38;;;;;;;11.57;70.97;101420.84;5072479;28;20043;-66
2021/11/09 06:44:27;;;;;;;9.73;6.97;;;;;;;11.48;69.69;101393.56;5070372;28;20028;-66
2021/11/09 06:46:53;;;;;;;12.38;6.80;;;;;;;11.74;69.31;101399.13;5073273;28;20190;-66
2021/11/09 06:49:18;;;;;;;10.00;7.47;;;;;;;11.01;71.26;101414.84;5073378;28;20483;-65
2021/11/09 06:51:44;;;;;;;14.23;7.57;;;;;;;11.30;70.46;101413.50;5077149;28;20040;-66
2021/11/09 06:54:10;;;;;;;12.20;7.03;;;;;;;11.56;69.95;101407.69;5081019;28;20036;-65
2021/11/09 06:56:35;;;;;;;14.38;7.65;;;;;;;11.58;69.81;101408.59;5069524;28;20028;-64
2021/11/09 06:59:01;;;;;;;14.50;9.82;;;;;;;11.52;69.65;101429.53;5069660;28;20078;-66
2021/11/09 07:01:27;;;;;;;11.98;7.90;;;;;;;11.38;70.30;101438.13;5078362;28;20035;-65
2021/11/09 07:03:52;;;;;;;9.90;7.15;;;;;;;11.02;71.04;101441.13;5080143;28;20038;-65
2021/11/09 07:06:18;;;;;;;15.70;7.90;;;;;;;10.95;71.12;101448.00;5071286;28;20029;-65
2021/11/09 07:08:44;;;;;;;10.95;7.45;;;;;;;9.86;73.74;101421.66;5072514;28;20372;-65
2021/11/09 07:11:09;;;;;;;10.20;7.60;;;;;;;10.09;75.27;101430.81;5083989;28;20063;-65
2021/11/09 07:13:35;;;;;;;11.88;7.00;;;;;;;10.14;74.90;101425.66;5081847;28;20028;-65
2021/11/09 07:16:03;;;;;;;18.75;7.93;;;;;;;10.74;72.98;101447.69;5077063;28;20064;-65
2021/11/09 07:18:28;;;;;;;16.67;7.97;;;;;;;10.59;72.78;101473.69;5072114;28;20090;-65
2021/11/09 07:20:54;;;;;;;12.30;8.07;;;;;;;10.80;72.77;101465.31;5076190;28;20034;-65
2021/11/09 07:23:19;;;;;;;19.73;10.02;;;;;;;9.57;76.05;101447.25;5068670;28;20467;-66
2021/11/09 07:25:46;;;;;;;21.55;11.23;;;;;;;10.35;74.94;101460.19;5083890;28;20111;-66
2021/11/09 07:28:12;;;;;;;13.23;8.70;;;;;;;10.34;74.28;101439.16;5079417;28;20038;-68
2021/11/09 07:30:47;;;;;;;15.30;8.60;;;;;;;10.92;72.85;101444.47;5078406;28;20032;-71
2021/11/09 07:33:13;;;;;;;11.15;7.38;;;;;;;10.76;73.24;101446.84;5072807;28;20029;-71
2021/11/09 07:35:39;;;;;;;10.02;7.57;;;;;;;10.99;72.55;101435.81;5085292;28;20040;-67
2021/11/09 07:38:05;;;;;;;12.45;8.48;;;;;;;11.05;71.75;101432.41;5069043;28;20032;-68
2021/11/09 07:40:31;;;;;;;11.70;8.50;;;;;;;11.07;71.35;101443.81;5070309;28;20162;-69
2021/11/09 07:42:57;;;;;;;14.27;8.68;;;;;;;10.80;72.65;101445.19;5072528;28;20064;-67
2021/11/09 07:45:23;;;;;;;13.20;8.02;;;;;;;9.90;75.03;101450.56;5077128;28;20075;-69
2021/11/09 07:47:51;;;;;;;21.02;9.20;;;;;;;9.35;78.54;101454.66;5071107;28;20059;-69
2021/11/09 07:50:18;;;;;;;14.30;8.07;;;;;;;10.00;76.32;101441.13;5074767;28;20032;-78
2021/11/09 07:52:45;;;;;;;14.05;6.30;;;;;;;10.35;74.24;101435.69;5082379;28;20028;-76
2021/11/09 07:55:17;;;;;;;9.10;7.63;;;;;;;11.22;72.75;101444.03;5067615;28;20463;-77
2021/11/09 07:57:45;;;;;;;12.85;8.70;;;;;;;11.06;71.86;101427.19;5070870;28;20040;-78
2021/11/09 08:03:24;;;;;;;11.88;7.03;;;;;;;10.32;73.43;101456.59;5072239;28;20089;-76
2021/11/09 08:08:22;;;;;;;17.48;8.27;;;;;;;10.74;73.63;101481.81;5084199;28;20051;-76
2021/11/09 08:10:48;;;;;;;16.08;8.40;;;;;;;10.94;72.28;101490.91;5072041;28;20603;-78
2021/11/09 08:13:13;;;;;;;18.80;7.55;;;;;;;10.28;73.19;101508.16;5071183;28;20028;-76
2021/11/09 08:15:39;;;;;;;12.32;7.43;;;;;;;9.77;75.47;101532.44;5075461;28;20157;-76
2021/11/09 08:18:05;;;;;;;8.80;5.68;;;;;;;8.58;79.78;101514.78;5078588;28;20032;-78
2021/11/09 08:20:31;;;;;;;9.57;6.35;;;;;;;8.47;80.37;101548.50;5068779;28;20423;-78
2021/11/09 08:22:57;;;;;;;10.88;6.75;;;;;;;8.27;81.69;101511.31;5069412;28;20024;-78
2021/11/09 08:25:23;;;;;;;9.50;5.97;;;;;;;9.18;80.25;101521.50;5070051;28;20040;-78
2021/11/09 08:27:49;;;;;;;12.40;6.90;;;;;;;9.72;78.30;101526.22;5071366;28;20399;-78
2021/11/09 08:30:15;;;;;;;10.50;7.22;;;;;;;8.77;78.49;101488.22;5083202;28;20024;-76
2021/11/09 08:32:42;;;;;;;9.38;5.65;;;;;;;8.55;81.56;101499.00;5079607;28;20064;-77
2021/11/09 08:35:11;;;;;;;9.75;5.90;;;;;;;8.93;79.92;101509.56;5078811;28;20041;-79
2021/11/09 08:37:38;;;;;;;12.05;6.75;;;;;;;8.42;80.77;101500.41;5069451;28;20052;-79
2021/11/09 08:40:10;;;;;;;7.55;5.82;;;;;;;8.97;79.11;101509.66;5082356;28;20032;-77
2021/11/09 08:42:42;;;;;;;11.63;5.78;;;;;;;8.23;80.46;101486.81;5070940;28;20040;-79
2021/11/09 08:45:23;;;;;;;12.60;5.67;;;;;;;8.71;79.44;101515.97;5069747;28;20045;-78
2021/11/09 08:47:53;;;;;;;11.13;6.00;;;;;;;8.10;80.00;101536.09;5068644;28;20028;-78
2021/11/09 08:50:24;;;;;;;11.80;6.65;;;;;;;8.13;80.88;101578.91;5067690;28;20036;-79
2021/11/09 08:52:53;;;;;;;8.55;6.32;;;;;;;7.66;82.11;101573.16;5068361;28;20111;-78
2021/11/09 09:05:57;;;;;;;10.23;6.35;;;;;;;7.26;84.41;101610.16;5073196;28;20035;-70
2021/11/09 09:08:23;;;;;;;14.48;9.10;;;;;;;7.28;84.67;101626.78;5073827;28;20430;-70
2021/11/09 09:10:49;;;;;;;13.05;5.13;;;;;;;7.44;83.62;101669.94;5073255;28;20056;-69
2021/11/09 09:13:15;;;;;;;8.80;6.72;;;;;;;7.14;85.29;101671.59;5072726;28;20040;-70
2021/11/09 09:15:40;;;;;;;14.20;10.30;;;;;;;7.30;84.95;101665.13;5073761;28;20035;-69
2021/11/09 09:18:06;;;;;;;11.52;7.40;;;;;;;7.18;84.40;101667.34;5073793;28;20589;-70
2021/11/09 09:20:40;;;;;;;12.93;7.82;;;;;;;7.23;84.47;101654.44;5072063;28;20045;-70
2021/11/09 09:23:32;;;;;;;21.35;13.48;;;;;;;7.44;84.63;101636.88;5073597;28;20055;-70
2021/11/09 09:26:07;;;;;;;15.70;7.90;;;;;;;7.63;83.89;101630.50;5072510;28;20052;-70
2021/11/09 09:32:12;;;;;;;21.55;10.02;;;;;;;8.51;82.04;101609.63;5073879;28;20117;-70
2021/11/09 09:56:46;;;;;;;7.15;5.05;;;;;;;7.88;82.32;101566.84;5072085;28;20123;-73
2021/11/09 09:58:46;;;;;;;19.63;9.40;;;;;;;7.92;82.31;101591.34;5066359;28;20483;-73
2021/11/09 10:01:12;;;;;;;12.73;9.60;;;;;;;8.14;82.46;101609.44;5072629;28;20476;-72
2021/11/09 10:03:40;;;;;;;11.75;7.35;;;;;;;8.57;81.00;101607.16;5084265;28;20092;-71
2021/11/09 10:06:09;;;;;;;9.65;7.90;;;;;;;8.41;81.60;101605.88;5071535;28;20041;-74
2021/11/09 10:08:40;;;;;;;7.80;4.70;;;;;;;7.91;82.08;101610.47;5082123;28;20035;-73
2021/11/09 10:11:06;;;;;;;11.18;6.93;;;;;;;8.32;82.75;101616.03;5078124;28;20043;-74
2021/11/09 10:13:39;;;;;;;24.17;14.30;;;;;;;7.67;84.32;101615.84;5070554;28;20032;-72
2021/11/09 10:16:06;;;;;;;19.58;11.23;;;;;;;7.70;84.10;101605.47;5072028;28;20501;-73
2021/11/09 10:18:42;;;;;;;15.75;6.70;;;;;;;7.56;84.10;101625.94;5071309;28;20123;-72
2021/11/09 10:21:08;;;;;;;10.68;6.90;;;;;;;7.44;84.60;101636.88;5071214;28;20040;-72
2021/11/09 10:23:34;;;;;;;18.25;13.90;;;;;;;7.71;84.68;101672.56;5071825;28;20028;-73
2021/11/09 10:26:13;;;;;;;13.95;7.60;;;;;;;7.43;85.03;101695.19;5076002;28;20040;-73
2021/11/09 10:28:40;;;;;;;9.57;4.60;;;;;;;7.23;85.10;101684.03;5072106;28;20032;-72
2021/11/09 10:31:09;;;;;;;11.80;8.23;;;;;;;7.56;84.77;101697.38;5082887;28;20028;-73
2021/11/09 10:33:45;;;;;;;23.00;10.68;;;;;;;7.39;84.92;101733.34;5078156;28;20036;-73
2021/11/09 10:36:19;;;;;;;6.97;5.10;;;;;;;7.10;85.76;101718.41;5069962;28;20047;-73
2021/11/09 10:38:46;;;;;;;18.02;10.98;;;;;;;7.42;84.78;101708.16;5070695;28;20036;-73
2021/11/09 10:41:13;;;;;;;10.70;6.47;;;;;;;7.72;84.40;101726.59;5070595;28;20040;-75
2021/11/09 10:43:39;;;;;;;11.45;7.07;;;;;;;8.31;83.03;101714.53;5070397;28;20511;-73
2021/11/09 10:46:04;;;;;;;8.20;4.63;;;;;;;7.63;83.65;101736.72;5071727;28;20032;-72
2021/11/09 10:48:31;;;;;;;8.63;4.95;;;;;;;7.53;84.01;101717.25;5071602;28;20432;-72
2021/11/09 10:51:00;;;;;;;8.32;4.07;;;;;;;7.40;84.11;101679.41;5086213;28;20035;-72
2021/11/09 10:53:39;;;;;;;8.57;4.70;;;;;;;7.54;84.16;101678.16;5071581;28;20043;-73
2021/11/09 11:06:33;;;;;;;11.57;8.02;;;;;;;7.69;83.73;101753.50;5072276;28;20040;-72
2021/11/09 11:09:10;;;;;;;19.67;12.45;;;;;;;8.19;81.77;101709.81;5072143;28;20037;-71
2021/11/09 11:11:40;;;;;;;9.50;4.88;;;;;;;7.65;82.80;101743.78;5071583;28;20056;-70
2021/11/09 11:14:05;;;;;;;6.55;3.60;;;;;;;7.77;83.24;101746.81;5073578;28;20139;-73
2021/11/09 11:16:42;;;;;;;5.85;4.43;;;;;;;7.33;84.68;101737.50;5073108;28;20119;-73
2021/11/09 11:19:08;;;;;;;8.88;5.07;;;;;;;7.34;84.80;101714.03;5072506;28;20024;-71
2021/11/09 11:21:34;;;;;;;7.22;4.78;;;;;;;7.86;84.38;101722.69;5069901;28;20055;-73
2021/11/09 11:24:00;;;;;;;8.18;4.50;;;;;;;8.06;82.31;101702.44;5068046;28;20067;-72
2021/11/09 11:26:25;;;;;;;8.45;5.70;;;;;;;7.86;83.38;101740.09;5069624;28;20043;-72
2021/11/09 11:28:54;;;;;;;6.90;3.97;;;;;;;7.56;83.69;101730.41;5071029;28;20041;-73
2021/11/09 11:31:20;;;;;;;7.90;4.55;;;;;;;7.00;85.16;101704.16;5082272;28;20035;-72
2021/11/09 11:33:50;;;;;;;17.88;7.57;;;;;;;7.39;84.73;101706.34;5081613;28;20068;-72
2021/11/09 11:36:15;;;;;;;8.70;5.82;;;;;;;7.54;83.88;101726.88;5071277;28;20040;-73
2021/11/09 11:38:47;;;;;;;17.20;11.48;;;;;;;7.91;82.92;101770.75;5085359;28;20028;-72
2021/11/09 11:41:13;;;;;;;11.50;7.53;;;;;;;7.76;82.24;101737.19;5086789;28;20042;-75
2021/11/09 11:43:47;;;;;;;9.23;6.20;;;;;;;8.07;82.02;101774.78;5070073;28;20127;-74
2021/11/09 11:46:15;;;;;;;9.95;5.22;;;;;;;7.44;83.50;101764.84;5070755;28;20070;-73
2021/11/09 11:49:01;;;;;;;17.42;5.10;;;;;;;7.53;84.17;101780.81;5075226;28;20028;-73
2021/11/09 11:51:28;;;;;;;8.50;4.93;;;;;;;7.25;84.56;101796.38;5080147;28;20042;-73
2021/11/09 11:53:54;;;;;;;7.10;4.30;;;;;;;7.52;83.60;101779.06;5082973;28;20075;-73
2021/11/09 11:56:21;;;;;;;9.70;4.72;;;;;;;8.06;82.83;101809.59;5070151;28;20060;-72
2021/11/09 11:58:47;;;;;;;9.13;5.65;;;;;;;8.04;82.81;101800.81;5068344;28;20056;-74
2021/11/09 12:01:34;;;;;;;12.30;6.13;;;;;;;7.99;81.23;101802.41;5082272;28;20079;-74
2021/11/09 12:04:07;;;;;;;9.32;3.90;;;;;;;8.61;80.48;101784.31;5068680;28;20407;-74
2021/11/09 12:06:49;;;;;;;7.95;4.32;;;;;;;8.62;78.87;101786.13;5069882;28;20036;-74
2021/11/09 12:09:34;;;;;;;10.98;6.03;;;;;;;8.70;79.77;101787.22;5070180;28;20040;-73
2021/11/09 12:12:20;;;;;;;9.05;6.32;;;;;;;8.44;79.82;101792.53;5069103;28;20048;-73
2021/11/09 12:14:50;;;;;;;9.60;5.57;;;;;;;8.01;81.52;101808.56;5069793;28;20055;-72
2021/11/09 12:17:36;;;;;;;11.32;6.32;;;;;;;7.98;81.49;101830.28;5069901;28;20493;-74
2021/11/09 12:20:09;;;;;;;8.95;4.95;;;;;;;7.69;82.82;101823.16;5068996;28;20178;-72
2021/11/09 12:22:49;;;;;;;8.52;5.72;;;;;;;7.01;84.75;101805.09;5069068;28;20040;-73
2021/11/09 12:25:32;;;;;;;9.07;3.80;;;;;;;7.48;84.00;101838.97;5069353;28;20056;-72
2021/11/09 12:27:58;;;;;;;8.05;6.38;;;;;;;7.25;84.15;101843.34;5070073;28;20078;-73
2021/11/09 12:30:33;;;;;;;18.30;10.40;;;;;;;7.53;83.87;101838.28;5076922;28;20436;-73
2021/11/09 12:33:16;;;;;;;14.00;5.72;;;;;;;7.69;83.52;101829.25;5071162;28;20115;-72
2021/11/09 12:35:46;;;;;;;8.40;4.13;;;;;;;7.13;83.48;101815.09;5074162;28;20119;-72
2021/11/09 12:38:15;;;;;;;9.30;4.45;;;;;;;7.30;83.87;101855.72;5074026;28;20036;-72
2021/11/09 12:40:46;;;;;;;11.35;7.03;;;;;;;7.55;83.39;101878.41;5072452;28;20131;-72
2021/11/09 12:43:21;;;;;;;9.77;6.22;;;;;;;7.21;83.75;101875.41;5071455;28;20039;-71
2021/11/09 12:46:04;;;;;;;13.10;6.95;;;;;;;7.38;83.04;101882.16;5074619;28;20115;-71
2021/11/09 12:48:34;;;;;;;14.18;8.73;;;;;;;7.40;83.59;101909.22;5076108;28;20128;-71
2021/11/09 12:51:02;;;;;;;21.92;11.82;;;;;;;7.25;83.57;101898.19;5073329;28;20064;-71
2021/11/09 12:53:28;;;;;;;14.18;7.55;;;;;;;6.95;83.87;101920.56;5073488;28;20032;-72
2021/11/09 12:56:04;;;;;;;16.05;9.13;;;;;;;7.15;83.73;101930.88;5073781;28;20040;-71
2021/11/09 12:58:35;;;;;;;11.85;6.40;;;;;;;7.01;84.42;101938.19;5073063;28;20487;-72
2021/11/09 13:01:13;;;;;;;48.45;26.80;;;;;;;7.21;84.27;101945.88;5072162;28;20036;-73
2021/11/09 13:03:47;;;;;;;17.17;9.82;;;;;;;6.83;85.38;101951.38;5071327;28;20062;-72
2021/11/09 13:06:40;;;;;;;21.77;13.68;;;;;;;6.64;85.63;101980.16;5073739;28;20501;-71
2021/11/09 13:09:15;;;;;;;16.23;6.90;;;;;;;6.70;85.51;101988.25;5073591;28;20029;-72
2021/11/09 13:11:46;;;;;;;16.10;10.30;;;;;;;6.90;84.96;101978.59;5072898;28;20477;-73
2021/11/09 13:14:11;;;;;;;15.07;8.45;;;;;;;6.83;83.58;101981.78;5074261;28;20070;-71
2021/11/09 13:16:55;;;;;;;9.68;4.60;;;;;;;6.52;83.45;102014.44;5073240;28;20035;-73
2021/11/09 13:19:24;;;;;;;;;;;;;;;6.48;84.41;102022.94;5073929;28;20046;-72
2021/11/09 13:22:10;;;;;;;12.73;6.35;;;;;;;6.47;84.37;102026.41;5075441;28;19962;-72
2021/11/09 13:24:43;;;;;;;13.25;9.50;;;;;;;6.65;84.19;102041.91;5086364;28;20079;-73
2021/11/09 13:27:11;;;;;;;13.10;6.03;;;;;;;6.49;83.39;102059.53;5074601;28;20024;-71
2021/11/09 13:29:40;;;;;;;12.18;7.50;;;;;;;6.49;82.21;102063.88;5079580;28;20048;-72
2021/11/09 13:32:08;;;;;;;15.57;9.30;;;;;;;6.46;81.74;102066.31;5082884;28;20499;-72
2021/11/09 13:34:35;;;;;;;7.55;5.15;;;;;;;6.13;82.72;102067.53;5073168;28;20398;-70
2021/11/09 13:37:01;;;;;;;6.47;4.22;;;;;;;6.08;82.08;102029.03;5071222;28;20036;-71
2021/11/09 13:39:26;;;;;;;10.25;7.82;;;;;;;6.24;81.75;102017.56;5072265;28;20407;-72
2021/11/09 13:41:52;;;;;;;9.23;4.25;;;;;;;6.47;80.79;102029.88;5073043;28;20032;-73
2021/11/09 13:44:17;;;;;;;7.28;3.90;;;;;;;6.45;81.10;102026.31;5070055;28;20056;-72
2021/11/09 13:46:45;;;;;;;5.95;3.95;;;;;;;6.66;80.00;102017.63;5070063;28;20467;-72
2021/11/09 13:49:13;;;;;;;5.85;3.70;;;;;;;7.70;78.34;102042.69;5073242;28;20082;-73
2021/11/09 13:51:48;;;;;;;7.20;4.10;;;;;;;7.22;77.73;102005.09;5070949;28;20059;-74
2021/11/09 13:54:48;;;;;;;6.15;3.50;;;;;;;7.81;75.77;102045.69;5087542;27;20626;-74
2021/11/09 13:57:14;;;;;;;6.10;3.33;;;;;;;7.60;77.38;102046.63;5084309;28;20044;-75